Time;durP1;ratioP1;P1;durP2;ratioP2;P2;SDS_P1;SDS_P2;PMS_P1;PMS_P2;Temp;Humidity;BMP_temperature;BMP_pressure;BME280_temperature;BME280_humidity;BME280_pressure;Samples;Min_cycle;Max_cycle;Signal;HPM_P1;HPM_P2
2023/06/24 00:01:36;;;;;;;0.70;0.70;;;;;;;17.30;100.00;100087.03;6178893;23;20013;-89
2023/06/24 00:04:02;;;;;;;0.82;0.82;;;;;;;17.41;100.00;100134.88;6152904;23;20024;-89
2023/06/24 00:06:28;;;;;;;0.95;0.50;;;;;;;17.45;100.00;100168.34;6179920;23;20013;-89
2023/06/24 00:09:00;;;;;;;0.35;0.35;;;;;;;17.42;100.00;100172.13;6151468;23;20036;-90
2023/06/24 00:11:29;;;;;;;0.57;0.57;;;;;;;17.40;100.00;100169.78;6179405;23;20017;-89
2023/06/24 00:13:55;;;;;;;3.72;1.75;;;;;;;17.45;100.00;100179.56;6152709;23;20013;-89
2023/06/24 00:16:26;;;;;;;0.57;0.55;;;;;;;17.42;100.00;100170.09;6178298;23;20020;-89
2023/06/24 00:18:53;;;;;;;0.43;0.30;;;;;;;17.42;100.00;100164.47;6178320;23;20080;-89
2023/06/24 00:21:19;;;;;;;0.47;0.47;;;;;;;17.43;100.00;100162.44;6153340;23;20016;-89
2023/06/24 00:23:44;;;;;;;1.15;1.05;;;;;;;17.38;100.00;100158.28;6179784;23;20121;-90
2023/06/24 00:26:10;;;;;;;0.80;0.68;;;;;;;17.36;100.00;100160.78;6208893;23;20012;-89
2023/06/24 00:28:36;;;;;;;0.85;0.85;;;;;;;17.32;100.00;100157.38;6206676;23;20016;-88
2023/06/24 00:31:02;;;;;;;0.35;0.35;;;;;;;17.33;100.00;100178.56;6158128;23;20074;-89
2023/06/24 00:33:28;;;;;;;1.02;0.63;;;;;;;17.32;100.00;100165.81;6209953;23;20023;-89
2023/06/24 00:35:56;;;;;;;0.75;0.73;;;;;;;17.28;100.00;100176.44;6183184;23;20103;-89
2023/06/24 00:38:22;;;;;;;0.20;0.20;;;;;;;17.22;100.00;100159.50;6211257;23;20463;-89
2023/06/24 00:40:47;;;;;;;0.93;0.63;;;;;;;17.27;100.00;100150.41;6211093;23;20009;-89
2023/06/24 00:43:13;;;;;;;7.03;0.70;;;;;;;17.23;100.00;100146.25;6183897;23;20017;-89
2023/06/24 00:45:39;;;;;;;0.22;0.22;;;;;;;17.22;100.00;100156.72;6185226;23;20008;-89
2023/06/24 00:48:05;;;;;;;0.45;0.45;;;;;;;17.21;100.00;100160.75;6211432;23;20190;-89
2023/06/24 00:50:32;;;;;;;0.98;0.52;;;;;;;17.17;100.00;100154.56;6184306;23;20012;-90
2023/06/24 00:52:57;;;;;;;0.22;0.22;;;;;;;17.20;100.00;100148.00;6211558;23;20514;-89
2023/06/24 00:55:23;;;;;;;1.30;1.08;;;;;;;17.18;100.00;100158.16;6211506;23;20150;-89
2023/06/24 00:57:51;;;;;;;1.15;1.05;;;;;;;17.21;100.00;100171.19;6185026;23;20020;-90
2023/06/24 01:00:21;;;;;;;0.10;0.10;;;;;;;17.16;100.00;100175.44;6211470;23;20017;-89
2023/06/24 01:05:44;;;;;;;0.00;0.00;;;;;;;17.18;100.00;100180.56;6184241;23;20399;-95
2023/06/24 01:08:15;;;;;;;0.08;0.08;;;;;;;17.14;100.00;100157.56;6110837;23;20521;-95
2023/06/24 01:10:44;;;;;;;0.10;0.10;;;;;;;17.02;100.00;100136.94;6105744;23;20014;-96
2023/06/24 01:13:09;;;;;;;0.22;0.22;;;;;;;17.01;100.00;100141.00;6109028;23;20100;-96
2023/06/24 01:15:36;;;;;;;0.30;0.30;;;;;;;17.08;100.00;100139.84;6129726;23;20415;-95
2023/06/24 01:18:04;;;;;;;0.30;0.30;;;;;;;17.27;100.00;100161.63;6129097;23;20017;-90
2023/06/24 01:20:34;;;;;;;0.10;0.10;;;;;;;17.08;100.00;100123.03;6123940;23;20020;-96
2023/06/24 01:23:21;;;;;;;0.20;0.20;;;;;;;17.31;100.00;100147.44;6131652;23;20029;-96
2023/06/24 01:25:58;;;;;;;0.32;0.30;;;;;;;17.09;100.00;100113.38;6153517;23;20106;-96
2023/06/24 01:28:44;;;;;;;0.08;0.08;;;;;;;17.31;100.00;100164.25;6123982;23;20021;-96
2023/06/24 01:31:50;;;;;;;0.00;0.00;;;;;;;17.31;100.00;100163.50;6143007;23;20032;-95
2023/06/24 01:34:28;;;;;;;0.05;0.05;;;;;;;17.23;100.00;100146.25;6097526;23;20021;-95
2023/06/24 01:37:21;;;;;;;0.10;0.10;;;;;;;17.10;100.00;100131.75;6102968;23;20013;-90
2023/06/24 01:39:57;;;;;;;0.20;0.20;;;;;;;17.05;100.00;100113.56;6091537;23;20049;-95
2023/06/24 01:42:23;;;;;;;0.13;0.13;;;;;;;16.91;100.00;100091.09;6140998;23;20021;-96
2023/06/24 01:44:49;;;;;;;0.43;0.35;;;;;;;16.89;100.00;100093.59;6127360;23;20052;-94
2023/06/24 01:47:19;;;;;;;0.10;0.10;;;;;;;17.05;100.00;100113.56;6145767;23;20091;-95
2023/06/24 01:49:45;;;;;;;0.00;0.00;;;;;;;17.01;100.00;100112.97;6126279;23;20507;-94
2023/06/24 01:52:11;;;;;;;0.10;0.10;;;;;;;17.01;100.00;100112.19;6131564;23;20009;-95
2023/06/24 01:54:39;;;;;;;0.00;0.00;;;;;;;16.73;100.00;100067.59;6124760;23;20044;-96
2023/06/24 01:57:06;;;;;;;0.03;0.03;;;;;;;16.82;100.00;100077.94;6131447;23;20079;-95
2023/06/24 01:59:33;;;;;;;0.22;0.22;;;;;;;16.94;100.00;100090.16;6172796;23;20039;-94
2023/06/24 02:02:00;;;;;;;0.40;0.40;;;;;;;16.88;100.00;100100.44;6165492;23;20024;-95
2023/06/24 02:04:30;;;;;;;0.00;0.00;;;;;;;16.83;100.00;100095.50;6131931;23;20116;-94
2023/06/24 02:07:02;;;;;;;0.00;0.00;;;;;;;16.75;100.00;100092.28;6158308;23;20363;-94
2023/06/24 02:09:30;;;;;;;0.00;0.00;;;;;;;16.75;100.00;100090.28;6129623;23;20017;-95
2023/06/24 02:11:57;;;;;;;0.10;0.10;;;;;;;16.68;100.00;100068.25;6131294;23;20017;-95
2023/06/24 02:14:23;;;;;;;0.00;0.00;;;;;;;16.81;100.00;100087.59;6128851;23;20013;-91
2023/06/24 02:16:49;;;;;;;0.00;0.00;;;;;;;16.70;100.00;100059.38;6129604;23;20013;-90
2023/06/24 02:19:17;;;;;;;0.15;0.10;;;;;;;16.90;100.00;100067.91;6128964;23;20017;-90
2023/06/24 02:21:44;;;;;;;0.85;0.60;;;;;;;16.77;100.00;100059.78;6130035;23;20013;-90
2023/06/24 02:24:11;;;;;;;0.00;0.00;;;;;;;16.89;100.00;100071.19;6128842;23;20016;-95
2023/06/24 02:26:40;;;;;;;0.22;0.22;;;;;;;16.82;100.00;100065.97;6133514;23;20018;-95
2023/06/24 02:29:09;;;;;;;0.35;0.35;;;;;;;16.74;100.00;100055.09;6134317;23;20087;-94
2023/06/24 02:31:34;;;;;;;0.20;0.10;;;;;;;16.96;100.00;100087.63;6157638;23;20331;-95
2023/06/24 02:34:00;;;;;;;0.10;0.10;;;;;;;16.74;100.00;100060.72;6156785;23;20020;-94
2023/06/24 02:36:27;;;;;;;0.00;0.00;;;;;;;16.84;100.00;100075.44;6156952;23;20102;-94
2023/06/24 02:38:54;;;;;;;0.22;0.17;;;;;;;16.82;100.00;100054.75;6127520;23;20530;-94
2023/06/24 02:41:47;;;;;;;0.00;0.00;;;;;;;16.96;100.00;100087.63;6179764;23;20101;-94
2023/06/24 02:44:13;;;;;;;0.10;0.10;;;;;;;16.89;100.00;100082.41;6152268;23;20016;-94
2023/06/24 02:46:40;;;;;;;0.00;0.00;;;;;;;16.83;100.00;100084.31;6179639;23;20365;-91
2023/06/24 02:49:06;;;;;;;0.20;0.20;;;;;;;16.84;100.00;100091.47;6151855;23;20024;-91
2023/06/24 02:51:33;;;;;;;0.05;0.05;;;;;;;16.85;100.00;100095.81;6176841;23;20015;-91
2023/06/24 02:53:59;;;;;;;0.10;0.10;;;;;;;16.84;100.00;100091.47;6148890;23;20098;-90
2023/06/24 02:56:48;;;;;;;0.00;0.00;;;;;;;16.89;100.00;100104.81;6182672;23;20332;-93
2023/06/24 02:59:22;;;;;;;1.00;0.60;;;;;;;16.76;100.00;100096.66;6152966;23;20076;-93
2023/06/24 03:01:48;;;;;;;0.45;0.38;;;;;;;16.69;100.00;100080.22;6128240;23;20135;-94
2023/06/24 03:04:14;;;;;;;0.00;0.00;;;;;;;16.76;100.00;100102.25;6176316;23;20032;-93
2023/06/24 03:06:40;;;;;;;0.00;0.00;;;;;;;16.66;100.00;100092.38;6128131;23;20435;-91
2023/06/24 03:09:07;;;;;;;0.28;0.22;;;;;;;16.71;100.00;100102.91;6127814;23;20009;-92
2023/06/24 03:11:42;;;;;;;0.00;0.00;;;;;;;16.70;100.00;100096.53;6109429;23;20331;-92
2023/06/24 03:14:10;;;;;;;0.00;0.00;;;;;;;16.81;100.00;100120.44;6123299;23;20017;-93
2023/06/24 03:16:40;;;;;;;0.05;0.05;;;;;;;16.76;100.00;100113.47;6108621;23;20005;-90
2023/06/24 03:19:11;;;;;;;0.00;0.00;;;;;;;16.76;100.00;100119.06;6149494;23;20105;-90
2023/06/24 03:21:37;;;;;;;0.32;0.10;;;;;;;16.66;100.00;100121.13;6127520;23;20013;-91
2023/06/24 03:24:09;;;;;;;0.00;0.00;;;;;;;16.76;100.00;100139.44;6129790;23;20305;-92
2023/06/24 03:26:39;;;;;;;0.00;0.00;;;;;;;16.63;100.00;100121.31;6153588;23;20020;-92
2023/06/24 03:29:08;;;;;;;0.00;0.00;;;;;;;16.71;100.00;100151.31;6152278;23;20060;-90
2023/06/24 03:31:35;;;;;;;0.00;0.00;;;;;;;16.72;100.00;100147.25;6128674;23;20021;-95
2023/06/24 03:34:01;;;;;;;0.00;0.00;;;;;;;16.64;100.00;100151.66;6103847;23;20009;-93
2023/06/24 03:36:27;;;;;;;0.00;0.00;;;;;;;16.74;100.00;100186.00;6103505;23;20095;-92
2023/06/24 03:38:53;;;;;;;0.00;0.00;;;;;;;16.69;100.00;100187.44;6152467;23;20100;-93
2023/06/24 03:41:19;;;;;;;0.00;0.00;;;;;;;16.73;100.00;100210.44;6152934;23;20429;-92
2023/06/24 03:43:44;;;;;;;0.10;0.10;;;;;;;16.64;100.00;100216.06;6151828;23;20446;-92
2023/06/24 03:46:11;;;;;;;0.00;0.00;;;;;;;16.69;100.00;100237.06;6153055;23;20141;-93
2023/06/24 03:48:37;;;;;;;0.30;0.30;;;;;;;16.70;100.00;100247.78;6153204;23;20446;-93
2023/06/24 03:51:03;;;;;;;0.65;0.15;;;;;;;16.70;100.00;100261.78;6129047;23;20017;-92
2023/06/24 03:53:29;;;;;;;0.30;0.30;;;;;;;16.68;100.00;100266.31;6128847;23;20021;-92
2023/06/24 03:55:55;;;;;;;0.47;0.47;;;;;;;16.70;100.00;100272.25;6128925;23;20342;-92
2023/06/24 03:58:21;;;;;;;0.25;0.22;;;;;;;16.66;100.00;100277.97;6153748;23;20021;-91
2023/06/24 04:00:49;;;;;;;0.00;0.00;;;;;;;16.64;100.00;100276.91;6104953;23;20020;-92
2023/06/24 04:03:18;;;;;;;0.00;0.00;;;;;;;16.56;100.00;100276.44;6129055;23;20028;-93
2023/06/24 04:05:44;;;;;;;0.30;0.30;;;;;;;16.56;100.00;100272.88;6155091;23;20539;-92
2023/06/24 04:08:10;;;;;;;2.30;0.45;;;;;;;16.50;100.00;100278.31;6130893;23;20068;-92
2023/06/24 04:10:36;;;;;;;0.63;0.35;;;;;;;16.49;100.00;100278.81;6155812;23;20016;-93
2023/06/24 04:13:03;;;;;;;0.00;0.00;;;;;;;16.51;100.00;100265.88;6155442;23;20040;-93
2023/06/24 04:15:28;;;;;;;0.05;0.03;;;;;;;16.52;100.00;100266.66;6155405;23;20021;-92
2023/06/24 04:17:54;;;;;;;0.00;0.00;;;;;;;16.52;100.00;100273.03;6155302;23;20506;-92
2023/06/24 04:20:20;;;;;;;0.28;0.20;;;;;;;16.45;100.00;100255.81;6106657;23;20407;-92
2023/06/24 04:22:46;;;;;;;0.75;0.50;;;;;;;16.59;100.00;100272.72;6154815;23;20036;-93
2023/06/24 04:25:12;;;;;;;0.40;0.40;;;;;;;16.47;100.00;100254.06;6182002;23;20375;-94
2023/06/24 04:27:37;;;;;;;0.28;0.28;;;;;;;16.59;100.00;100271.94;6155653;23;20498;-93
2023/06/24 04:30:06;;;;;;;0.20;0.20;;;;;;;16.60;100.00;100260.28;6130751;23;20432;-93
2023/06/24 04:32:32;;;;;;;8.60;0.55;;;;;;;16.72;100.00;100273.31;6155656;23;20469;-92
2023/06/24 04:35:00;;;;;;;0.25;0.25;;;;;;;16.78;100.00;100257.38;6155233;23;20072;-92
2023/06/24 04:37:27;;;;;;;0.28;0.28;;;;;;;16.89;100.00;100282.09;6131477;23;20032;-93
2023/06/24 04:39:53;;;;;;;0.20;0.20;;;;;;;16.93;100.00;100281.94;6179287;23;20037;-94
2023/06/24 04:42:18;;;;;;;0.10;0.10;;;;;;;16.98;100.00;100284.09;6182227;23;20096;-93
2023/06/24 04:44:44;;;;;;;0.00;0.00;;;;;;;17.06;100.00;100282.47;6181321;23;20021;-94
2023/06/24 04:47:09;;;;;;;1.10;0.95;;;;;;;17.05;100.00;100269.72;6155508;23;20094;-92
2023/06/24 04:49:35;;;;;;;0.28;0.28;;;;;;;17.12;100.00;100272.94;6130427;23;20015;-93
2023/06/24 04:52:01;;;;;;;0.17;0.17;;;;;;;17.18;100.00;100285.06;6155394;23;20017;-92
2023/06/24 04:54:27;;;;;;;0.00;0.00;;;;;;;17.29;100.00;100287.31;6155067;23;20005;-93
2023/06/24 04:56:55;;;;;;;0.25;0.25;;;;;;;17.46;100.00;100298.91;6180286;23;20075;-93
2023/06/24 04:59:21;;;;;;;0.65;0.32;;;;;;;17.40;100.00;100284.75;6130191;23;20088;-93
2023/06/24 05:01:46;;;;;;;0.10;0.10;;;;;;;17.44;100.00;100284.56;6181572;23;20013;-93
2023/06/24 05:04:12;;;;;;;0.38;0.25;;;;;;;17.60;100.00;100298.19;6135741;23;20024;-92
2023/06/24 05:06:37;;;;;;;7.82;0.45;;;;;;;17.64;100.00;100296.75;6155448;23;20048;-92
2023/06/24 05:09:03;;;;;;;0.10;0.10;;;;;;;17.76;100.00;100299.78;6130185;23;20096;-93
2023/06/24 05:11:28;;;;;;;0.38;0.38;;;;;;;17.78;100.00;100292.44;6155321;23;20096;-92
2023/06/24 05:13:55;;;;;;;0.32;0.32;;;;;;;18.01;100.00;100304.88;6179094;23;20024;-93
2023/06/24 05:16:22;;;;;;;0.00;0.00;;;;;;;17.89;100.00;100280.66;6154766;23;20012;-92
2023/06/24 05:18:47;;;;;;;0.15;0.15;;;;;;;17.93;100.00;100282.03;6154824;23;20068;-92
2023/06/24 05:21:13;;;;;;;0.00;0.00;;;;;;;18.02;100.00;100272.75;6181182;23;20092;-92
2023/06/24 05:23:38;;;;;;;0.20;0.20;;;;;;;18.25;100.00;100285.91;6179098;23;20090;-92
2023/06/24 05:26:04;;;;;;;0.00;0.00;;;;;;;18.42;100.00;100301.03;6154586;23;20009;-93
2023/06/24 05:28:29;;;;;;;0.08;0.08;;;;;;;18.35;100.00;100293.00;6155015;23;20573;-92
2023/06/24 05:30:55;;;;;;;0.13;0.08;;;;;;;18.48;100.00;100315.91;6154958;23;20019;-92
2023/06/24 05:33:21;;;;;;;0.10;0.10;;;;;;;18.53;100.00;100306.06;6154845;23;20036;-92
2023/06/24 05:35:47;;;;;;;0.10;0.10;;;;;;;18.74;100.00;100315.38;6181106;23;20435;-92
2023/06/24 05:38:13;;;;;;;0.10;0.10;;;;;;;18.67;100.00;100298.91;6154060;23;20344;-92
2023/06/24 05:40:38;;;;;;;0.00;0.00;;;;;;;18.80;100.00;100314.22;6154577;23;20363;-92
2023/06/24 05:43:03;;;;;;;0.30;0.10;;;;;;;18.88;100.00;100332.22;6154670;23;20028;-94
2023/06/24 05:45:29;;;;;;;0.13;0.13;;;;;;;18.91;100.00;100327.66;6129978;23;20024;-92
2023/06/24 05:47:54;;;;;;;0.00;0.00;;;;;;;19.13;100.00;100333.59;6129987;23;20001;-93
2023/06/24 05:50:20;;;;;;;0.68;0.30;;;;;;;19.10;100.00;100326.94;6154378;23;20024;-93
2023/06/24 05:52:46;;;;;;;0.00;0.00;;;;;;;19.29;100.00;100327.44;6155173;23;20098;-92
2023/06/24 05:55:13;;;;;;;0.10;0.10;;;;;;;19.27;100.00;100318.72;6154437;23;20029;-94
2023/06/24 05:57:39;;;;;;;13.70;0.43;;;;;;;19.47;100.00;100315.97;6155738;23;20016;-94
2023/06/24 06:00:06;;;;;;;0.40;0.40;;;;;;;19.67;100.00;100318.00;6130204;23;20028;-92
2023/06/24 06:02:37;;;;;;;0.43;0.22;;;;;;;19.82;100.00;100315.88;6132556;23;20371;-93
2023/06/24 06:05:03;;;;;;;0.10;0.10;;;;;;;19.95;100.00;100321.91;6153716;23;20024;-92
2023/06/24 06:07:29;;;;;;;0.30;0.30;;;;;;;19.91;100.00;100314.97;6129545;23;20017;-93
2023/06/24 06:09:55;;;;;;;0.45;0.10;;;;;;;19.91;100.00;100329.81;6178892;23;20020;-92
2023/06/24 06:12:21;;;;;;;0.10;0.10;;;;;;;20.05;100.00;100324.59;6130037;23;20085;-92
2023/06/24 06:14:46;;;;;;;0.20;0.20;;;;;;;20.23;100.00;100330.66;6153999;23;20009;-93
2023/06/24 06:17:13;;;;;;;0.47;0.20;;;;;;;20.42;100.00;100325.53;6129252;23;20320;-92
2023/06/24 06:19:41;;;;;;;0.15;0.15;;;;;;;20.77;100.00;100325.31;6154573;23;20017;-92
2023/06/24 06:22:07;;;;;;;0.00;0.00;;;;;;;20.71;100.00;100330.09;6105704;23;20036;-93
2023/06/24 06:24:33;;;;;;;0.20;0.20;;;;;;;20.74;100.00;100332.72;6153180;23;20539;-92
2023/06/24 06:27:01;;;;;;;0.35;0.17;;;;;;;20.64;100.00;100317.25;6154697;23;20009;-92
2023/06/24 06:29:27;;;;;;;0.32;0.32;;;;;;;20.99;100.00;100333.16;6153515;23;20431;-92
2023/06/24 06:31:55;;;;;;;0.10;0.10;;;;;;;20.89;100.00;100324.13;6154532;23;20020;-91
2023/06/24 06:34:20;;;;;;;0.20;0.20;;;;;;;20.77;100.00;100323.25;6178671;23;20084;-91
2023/06/24 06:36:46;;;;;;;0.20;0.15;;;;;;;20.99;100.00;100339.56;6154354;23;20071;-92
2023/06/24 06:39:11;;;;;;;0.20;0.20;;;;;;;21.24;100.00;100327.44;6153356;23;20009;-92
2023/06/24 06:41:37;;;;;;;0.00;0.00;;;;;;;21.63;100.00;100329.72;6154416;23;20451;-93
2023/06/24 06:44:02;;;;;;;0.20;0.20;;;;;;;21.86;100.00;100314.41;6128884;23;20048;-92
2023/06/24 06:46:28;;;;;;;0.00;0.00;;;;;;;21.97;96.37;100325.75;6154079;23;20021;-92
2023/06/24 06:48:54;;;;;;;0.00;0.00;;;;;;;22.27;98.93;100324.06;6129122;23;20091;-91
2023/06/24 06:51:20;;;;;;;0.08;0.08;;;;;;;21.65;98.08;100333.56;6129388;23;20286;-93
2023/06/24 06:53:45;;;;;;;0.10;0.10;;;;;;;21.60;100.00;100325.06;6153656;23;20017;-92
2023/06/24 06:56:18;;;;;;;0.25;0.25;;;;;;;21.68;100.00;100317.66;6129554;23;20012;-92
2023/06/24 06:58:44;;;;;;;;;;;;;;;21.65;100.00;100338.44;6153800;23;20538;-92
2023/06/24 07:01:09;;;;;;;0.00;0.00;;;;;;;21.43;100.00;100327.84;6153775;23;19920;-92
2023/06/24 07:03:35;;;;;;;0.30;0.30;;;;;;;20.96;100.00;100329.28;6153705;23;20013;-93
2023/06/24 07:06:01;;;;;;;0.25;0.25;;;;;;;20.83;100.00;100323.28;6153965;23;20013;-92
2023/06/24 07:08:26;;;;;;;1.20;0.90;;;;;;;20.72;100.00;100331.66;6153671;23;20020;-91
2023/06/24 07:10:52;;;;;;;0.10;0.10;;;;;;;20.84;100.00;100350.22;6104671;23;20493;-91
2023/06/24 07:13:17;;;;;;;0.00;0.00;;;;;;;20.94;100.00;100346.72;6128828;23;20148;-92
2023/06/24 07:15:43;;;;;;;0.00;0.00;;;;;;;20.75;100.00;100344.75;6104845;23;20005;-92
2023/06/24 07:18:08;;;;;;;0.00;0.00;;;;;;;20.57;100.00;100354.34;6128824;23;20351;-91
2023/06/24 07:20:34;;;;;;;0.57;0.57;;;;;;;20.40;100.00;100345.72;6154083;23;20005;-91
2023/06/24 07:22:59;;;;;;;0.00;0.00;;;;;;;20.34;100.00;100347.69;6153328;23;20028;-91
2023/06/24 07:25:26;;;;;;;0.10;0.10;;;;;;;20.23;100.00;100369.31;6129428;23;20013;-91
2023/06/24 07:27:51;;;;;;;0.25;0.25;;;;;;;20.09;100.00;100362.53;6129562;23;19993;-91
2023/06/24 07:30:17;;;;;;;0.20;0.20;;;;;;;19.91;100.00;100338.25;6128791;23;20020;-91
2023/06/24 07:32:42;;;;;;;0.00;0.00;;;;;;;19.98;100.00;100359.56;6178677;23;20091;-92
2023/06/24 07:35:08;;;;;;;0.03;0.03;;;;;;;19.91;100.00;100365.63;6128887;23;20391;-92
2023/06/24 07:37:34;;;;;;;0.20;0.20;;;;;;;19.87;100.00;100360.22;6129105;23;20017;-92
2023/06/24 07:40:00;;;;;;;0.47;0.30;;;;;;;19.80;100.00;100363.47;6177779;23;20100;-91
2023/06/24 07:42:25;;;;;;;0.13;0.13;;;;;;;19.82;100.00;100357.31;6153944;23;20056;-92
2023/06/24 07:44:50;;;;;;;0.65;0.30;;;;;;;19.80;100.00;100357.84;6179661;23;20016;-92
2023/06/24 07:47:18;;;;;;;0.20;0.20;;;;;;;19.80;100.00;100349.41;6180063;23;20005;-92
2023/06/24 07:49:43;;;;;;;0.35;0.10;;;;;;;19.77;100.00;100335.53;6128864;23;20017;-91
2023/06/24 07:52:09;;;;;;;0.10;0.10;;;;;;;19.55;100.00;100333.97;6104783;23;20527;-91
2023/06/24 07:54:35;;;;;;;0.20;0.20;;;;;;;19.71;100.00;100352.34;6128958;23;20013;-91
2023/06/24 07:57:01;;;;;;;0.68;0.68;;;;;;;19.78;100.00;100351.91;6153654;23;19997;-91
2023/06/24 07:59:26;;;;;;;0.32;0.32;;;;;;;19.91;100.00;100372.03;6179374;23;20017;-91
2023/06/24 08:01:52;;;;;;;1.30;0.47;;;;;;;19.97;100.00;100370.09;6129141;23;20506;-92
2023/06/24 08:04:17;;;;;;;1.33;1.23;;;;;;;19.93;100.00;100374.38;6160208;23;20036;-90
2023/06/24 08:06:43;;;;;;;0.08;0.08;;;;;;;19.92;100.00;100361.56;6153846;23;20013;-91
2023/06/24 08:09:08;;;;;;;0.20;0.20;;;;;;;20.07;100.00;100367.88;6128193;23;20099;-91
2023/06/24 08:11:34;;;;;;;0.00;0.00;;;;;;;20.24;100.00;100366.03;6129241;23;20020;-91
2023/06/24 08:14:01;;;;;;;0.10;0.10;;;;;;;20.35;100.00;100377.44;6153141;23;20067;-90
2023/06/24 08:16:27;;;;;;;0.25;0.25;;;;;;;20.35;100.00;100380.25;6179191;23;20005;-91
2023/06/24 08:18:53;;;;;;;0.35;0.35;;;;;;;20.37;100.00;100368.50;6153320;23;20293;-91
2023/06/24 08:21:19;;;;;;;0.40;0.30;;;;;;;20.18;100.00;100362.34;6154690;23;20233;-91
2023/06/24 08:23:45;;;;;;;0.43;0.22;;;;;;;20.26;100.00;100374.72;6153010;23;20005;-90
2023/06/24 08:26:11;;;;;;;0.45;0.45;;;;;;;20.35;100.00;100360.53;6153261;23;20518;-91
2023/06/24 08:28:36;;;;;;;0.28;0.28;;;;;;;20.52;100.00;100365.56;6128301;23;20017;-91
2023/06/24 08:31:02;;;;;;;0.20;0.20;;;;;;;20.45;100.00;100349.88;6153834;23;20526;-91
2023/06/24 08:33:27;;;;;;;0.40;0.40;;;;;;;20.52;100.00;100340.97;6153251;23;20013;-91
2023/06/24 08:35:53;;;;;;;0.28;0.25;;;;;;;20.69;100.00;100355.22;6129337;23;20478;-91
2023/06/24 08:38:18;;;;;;;0.50;0.47;;;;;;;20.82;100.00;100342.28;6128317;23;20032;-90
2023/06/24 08:40:45;;;;;;;0.20;0.20;;;;;;;21.00;100.00;100340.34;6153116;23;20580;-91
2023/06/24 08:43:11;;;;;;;0.13;0.13;;;;;;;21.33;100.00;100358.28;6128169;23;20029;-90
2023/06/24 08:45:36;;;;;;;0.20;0.20;;;;;;;21.25;100.00;100350.81;6153013;23;20014;-92
2023/06/24 08:48:03;;;;;;;1.45;1.13;;;;;;;21.10;100.00;100348.13;6128476;23;20059;-91
2023/06/24 08:50:34;;;;;;;0.82;0.70;;;;;;;21.01;100.00;100334.19;6105523;23;20097;-91
2023/06/24 08:53:02;;;;;;;0.75;0.75;;;;;;;21.27;100.00;100348.25;6129480;23;20390;-91
2023/06/24 08:55:31;;;;;;;0.65;0.57;;;;;;;21.75;100.00;100348.25;6179638;23;20131;-91
2023/06/24 08:57:57;;;;;;;1.95;0.80;;;;;;;22.09;100.00;100349.16;6155220;23;20036;-91
2023/06/24 09:00:22;;;;;;;0.50;0.43;;;;;;;22.57;100.00;100363.91;6154282;23;20344;-91
2023/06/24 09:02:48;;;;;;;2.78;0.80;;;;;;;22.93;100.00;100367.81;6155299;23;20040;-91
2023/06/24 09:05:13;;;;;;;1.15;0.77;;;;;;;23.00;99.13;100350.34;6173066;23;20520;-91
2023/06/24 09:07:39;;;;;;;0.65;0.55;;;;;;;23.15;95.66;100342.34;6130124;23;20522;-91
2023/06/24 09:10:05;;;;;;;0.35;0.35;;;;;;;23.46;91.27;100348.97;6154698;23;20067;-90
2023/06/24 09:12:34;;;;;;;0.08;0.08;;;;;;;23.67;90.86;100361.53;6181463;23;20016;-91
2023/06/24 09:15:00;;;;;;;0.10;0.10;;;;;;;23.57;87.20;100348.97;6154298;23;20017;-90
2023/06/24 09:17:25;;;;;;;0.10;0.10;;;;;;;23.53;84.98;100354.13;6131289;23;20520;-89
2023/06/24 09:19:51;;;;;;;0.00;0.00;;;;;;;23.41;82.38;100352.59;6155223;23;20017;-90
2023/06/24 09:22:18;;;;;;;0.22;0.13;;;;;;;23.47;84.41;100359.03;6130417;23;20013;-91
2023/06/24 09:24:46;;;;;;;0.10;0.10;;;;;;;23.35;87.12;100355.41;6129336;23;20013;-90
2023/06/24 09:27:14;;;;;;;0.00;0.00;;;;;;;23.63;87.41;100338.38;6155356;23;20008;-90
2023/06/24 09:29:40;;;;;;;0.10;0.10;;;;;;;24.10;83.77;100354.13;6129666;23;20017;-90
2023/06/24 09:32:06;;;;;;;0.10;0.10;;;;;;;24.17;78.73;100343.56;6155010;23;20055;-89
2023/06/24 09:34:32;;;;;;;0.03;0.03;;;;;;;23.85;76.54;100340.38;6154748;23;20009;-90
2023/06/24 09:36:58;;;;;;;0.05;0.05;;;;;;;24.27;76.27;100331.38;6155123;23;20020;-90
2023/06/24 09:39:29;;;;;;;0.20;0.20;;;;;;;24.12;71.80;100325.28;6153697;23;20017;-90
2023/06/24 09:42:01;;;;;;;0.10;0.10;;;;;;;24.55;71.90;100325.53;6131452;23;20020;-91
2023/06/24 09:44:27;;;;;;;0.20;0.20;;;;;;;24.77;68.59;100322.53;6104859;23;20335;-90
2023/06/24 09:46:54;;;;;;;0.10;0.10;;;;;;;25.04;65.63;100330.03;6155639;23;20351;-91
2023/06/24 09:49:19;;;;;;;0.08;0.08;;;;;;;25.04;63.52;100332.09;6154351;23;20075;-91
2023/06/24 09:51:50;;;;;;;0.00;0.00;;;;;;;24.93;64.85;100327.31;6155035;23;20013;-90
2023/06/24 09:54:16;;;;;;;0.10;0.10;;;;;;;24.40;69.28;100317.38;6129224;23;20024;-91
2023/06/24 09:56:53;;;;;;;3.03;0.95;;;;;;;24.64;67.42;100319.53;6129950;23;20005;-91
2023/06/24 09:59:24;;;;;;;0.00;0.00;;;;;;;24.73;64.58;100316.38;6153064;23;20241;-92
2023/06/24 10:01:52;;;;;;;0.10;0.10;;;;;;;24.65;67.92;100320.31;6130311;23;20013;-91
2023/06/24 10:04:19;;;;;;;0.10;0.10;;;;;;;24.67;64.89;100318.47;6161142;23;20311;-92
2023/06/24 10:06:45;;;;;;;0.10;0.10;;;;;;;24.51;67.30;100333.53;6154631;23;20021;-92
2023/06/24 10:09:13;;;;;;;0.10;0.10;;;;;;;24.00;70.79;100330.25;6128540;23;20491;-92
2023/06/24 10:11:39;;;;;;;0.10;0.10;;;;;;;23.80;75.49;100336.25;6179177;23;20047;-91
2023/06/24 10:14:04;;;;;;;0.08;0.08;;;;;;;24.07;73.11;100331.75;6153339;23;20017;-91
2023/06/24 10:16:30;;;;;;;0.00;0.00;;;;;;;24.39;71.74;100327.19;6180029;23;20021;-91
2023/06/24 10:19:01;;;;;;;0.10;0.10;;;;;;;24.60;66.97;100316.22;6179083;23;20013;-93
2023/06/24 10:21:44;;;;;;;0.20;0.20;;;;;;;24.79;64.64;100319.91;6154951;23;20017;-92
2023/06/24 10:24:10;;;;;;;0.10;0.10;;;;;;;24.26;64.65;100329.09;6153523;23;20021;-91
2023/06/24 10:26:36;;;;;;;0.00;0.00;;;;;;;24.53;65.70;100325.28;6105527;23;20414;-90
2023/06/24 10:29:04;;;;;;;0.10;0.10;;;;;;;24.86;66.75;100313.72;6128856;23;20021;-92
2023/06/24 10:31:39;;;;;;;0.00;0.00;;;;;;;25.03;67.54;100325.66;6181066;23;20025;-92
2023/06/24 10:34:20;;;;;;;0.57;0.30;;;;;;;24.71;66.14;100332.38;6180358;23;20091;-93
2023/06/24 10:37:06;;;;;;;0.32;0.32;;;;;;;24.69;67.89;100327.22;6180798;23;20017;-91
2023/06/24 10:39:44;;;;;;;1.30;0.57;;;;;;;24.46;69.81;100320.97;6128579;23;20024;-91
2023/06/24 10:42:41;;;;;;;0.28;0.20;;;;;;;24.51;71.04;100311.63;6180701;23;20074;-92
2023/06/24 10:45:09;;;;;;;0.10;0.10;;;;;;;24.87;67.07;100320.16;6105121;23;20021;-92
2023/06/24 10:48:03;;;;;;;0.00;0.00;;;;;;;24.49;67.36;100319.91;6154272;23;20060;-92
2023/06/24 10:50:28;;;;;;;0.10;0.10;;;;;;;24.32;70.40;100315.63;6151264;23;20028;-91
2023/06/24 10:52:57;;;;;;;0.90;0.32;;;;;;;24.28;70.92;100318.00;6153960;23;20016;-93
2023/06/24 10:55:25;;;;;;;0.13;0.13;;;;;;;24.31;72.08;100308.44;6154405;23;20077;-92
2023/06/24 10:57:51;;;;;;;0.08;0.08;;;;;;;24.51;71.11;100299.50;6154547;23;20020;-92
2023/06/24 11:00:16;;;;;;;0.00;0.00;;;;;;;24.77;70.00;100304.72;6103773;23;20005;-91
2023/06/24 11:02:42;;;;;;;0.10;0.10;;;;;;;24.87;68.31;100318.06;6154181;23;20475;-92
2023/06/24 11:05:08;;;;;;;0.30;0.30;;;;;;;25.07;67.27;100302.69;6175896;23;20059;-92
2023/06/24 11:07:36;;;;;;;0.10;0.10;;;;;;;25.04;67.42;100301.66;6183613;23;20017;-93
2023/06/24 11:10:15;;;;;;;0.30;0.30;;;;;;;24.96;69.13;100311.28;6183332;23;20008;-92
2023/06/24 11:12:42;;;;;;;0.20;0.20;;;;;;;24.75;70.41;100313.75;6184507;23;20024;-91
2023/06/24 11:15:09;;;;;;;0.10;0.10;;;;;;;25.02;69.37;100315.63;6182651;23;20015;-90
2023/06/24 11:17:35;;;;;;;0.57;0.50;;;;;;;25.27;67.46;100318.47;6183649;23;20027;-91
2023/06/24 11:20:02;;;;;;;0.00;0.00;;;;;;;24.98;69.49;100315.13;6209895;23;20015;-90
2023/06/24 11:22:27;;;;;;;0.25;0.10;;;;;;;24.65;70.56;100321.06;6210538;23;20020;-93
2023/06/24 11:24:56;;;;;;;0.20;0.20;;;;;;;24.72;71.11;100306.31;6183361;23;20473;-90